Decoded TAF's for Namibia

 
Print Page
 
 

Grootfontein - Namibia, FYGF

ADDS - TAFS form results

Aviation Digital Data Service (ADDS)

Output produced by TAFs form (0424 UTC 24 April 2018)
found at http://aviationweather.gov/adds/tafs/
 
Forecast for: FYGF (GROOTFONTEIN , NA)
Text: TAF FYGF 240200Z 2403/2412 00000KT CAVOK
Forecast period: 0300 to 1200 UTC 24 April 2018
Forecast type: FROM: standard forecast or significant change
Winds: calm
Visibility: 6 or more miles (10+ km)
Clouds: not forecast
Weather: NSW  (no significant weather)

Array
Henties Bay - Namibia, FYGN

ADDS - TAFS form results

Aviation Digital Data Service (ADDS)

Output produced by TAFs form (0424 UTC 24 April 2018)
found at http://aviationweather.gov/adds/tafs/
 
You entered "FYGN"

Sorry, either there are no data available for your request or you did not enter any valid ICAO airport abbreviations.

See stations.txt for a list of known METAR and TAF locations. Then go back to the ADDS METARs or TAFs page and try again
 
Please try again and, if problems persist, then send mail to ncep.awc.adds@noaa.gov
Array
Keetmanshoop - Namibia, FYKT

ADDS - TAFS form results

Aviation Digital Data Service (ADDS)

Output produced by TAFs form (0424 UTC 24 April 2018)
found at http://aviationweather.gov/adds/tafs/
 
Forecast for: FYKT (KEETMANSHOOP , NA)
Text: TAF FYKT 240400Z 2406/2512 00000KT CAVOK
Forecast period: 0600 to 0800 UTC 24 April 2018
Forecast type: FROM: standard forecast or significant change
Winds: calm
Visibility: 6 or more miles (10+ km)
Clouds: not forecast
Weather: NSW  (no significant weather)
Forecast for: FYKT (KEETMANSHOOP , NA)
Text: TAF FYKT 240400Z 2406/2512 00000KT CAVOK
Forecast period: 0600 to 0800 UTC 24 April 2018
Forecast type: FROM: standard forecast or significant change
Winds: calm
Visibility: 6 or more miles (10+ km)
Clouds: not forecast
Weather: NSW  (no significant weather)
Forecast for: FYKT (KEETMANSHOOP , NA)
Text: TAF FYKT 240400Z 2406/2512 00000KT CAVOK
Forecast period: 0800 to 1200 UTC 24 April 2018
Forecast type: BECOMING: Conditions expected to become as follows by 1000 UTC 24 April 2018
Winds: from the NE (40 degrees) at 9 MPH (8 knots; 4.2 m/s)
Visibility: 6 or more miles (10+ km)
Weather: NSW  (no significant weather)
Forecast for: FYKT (KEETMANSHOOP , NA)
Text: TAF FYKT 240400Z 2406/2512 00000KT CAVOK
Forecast period: 0800 to 1200 UTC 24 April 2018
Forecast type: BECOMING: Conditions expected to become as follows by 1000 UTC 24 April 2018
Winds: from the NE (40 degrees) at 9 MPH (8 knots; 4.2 m/s)
Visibility: 6 or more miles (10+ km)
Weather: NSW  (no significant weather)
Forecast for: FYKT (KEETMANSHOOP , NA)
Text: TAF FYKT 240400Z 2406/2512 00000KT CAVOK
Forecast period: 1200 UTC 24 April 2018 to 1200 UTC 25 April 2018
Forecast type: BECOMING: Conditions expected to become as follows by 1400 UTC 24 April 2018
Winds: from the NW (310 degrees) at 14 MPH (12 knots; 6.2 m/s)
Visibility: 6 or more miles (10+ km)
Weather: NSW  (no significant weather)
Forecast for: FYKT (KEETMANSHOOP , NA)
Text: TAF FYKT 240400Z 2406/2512 00000KT CAVOK
Forecast period: 1200 UTC 24 April 2018 to 1200 UTC 25 April 2018
Forecast type: BECOMING: Conditions expected to become as follows by 1400 UTC 24 April 2018
Winds: from the NW (310 degrees) at 14 MPH (12 knots; 6.2 m/s)
Visibility: 6 or more miles (10+ km)
Weather: NSW  (no significant weather)

Array
Katima Mulilo - Namibia, FYKM

ADDS - TAFS form results

Aviation Digital Data Service (ADDS)

Output produced by TAFs form (0424 UTC 24 April 2018)
found at http://aviationweather.gov/adds/tafs/
 
You entered "FYKM"

Sorry, either there are no data available for your request or you did not enter any valid ICAO airport abbreviations.

See stations.txt for a list of known METAR and TAF locations. Then go back to the ADDS METARs or TAFs page and try again
 
Please try again and, if problems persist, then send mail to ncep.awc.adds@noaa.gov
Array
Luderitz - Namibia, FYLZ

ADDS - TAFS form results

Aviation Digital Data Service (ADDS)

Output produced by TAFs form (0424 UTC 24 April 2018)
found at http://aviationweather.gov/adds/tafs/
 
Forecast for: FYLZ (LUDERITZ/DIAZ PO, NA)
Text: TAF FYLZ 240200Z 2403/2412 00000KT 9999 BKN010
Forecast period: 0300 to 0900 UTC 24 April 2018
Forecast type: FROM: standard forecast or significant change
Winds: calm
Visibility: 6 or more miles (10+ km)
Ceiling: 1000 feet AGL
Clouds: broken clouds at 1000 feet AGL
Weather: no significant weather forecast for this period
Text: BECMG 2409/2411 20008KT CAVOK
Forecast period: 0900 to 1200 UTC 24 April 2018
Forecast type: BECOMING: Conditions expected to become as follows by 1100 UTC 24 April 2018
Winds: from the SSW (200 degrees) at 9 MPH (8 knots; 4.2 m/s)
Visibility: 6 or more miles (10+ km)
Weather: NSW  (no significant weather)

Array
Ondangwa - Namibia, FYOA

ADDS - TAFS form results

Aviation Digital Data Service (ADDS)

Output produced by TAFs form (0424 UTC 24 April 2018)
found at http://aviationweather.gov/adds/tafs/
 
Forecast for: FYOA (ONDANGWA , NA)
Text: TAF FYOA 240200Z 2403/2412 00000KT CAVOK
Forecast period: 0300 to 1200 UTC 24 April 2018
Forecast type: FROM: standard forecast or significant change
Winds: calm
Visibility: 6 or more miles (10+ km)
Clouds: not forecast
Weather: NSW  (no significant weather)

Array
Walvis Bay - Namibia, FYWB

ADDS - TAFS form results

Aviation Digital Data Service (ADDS)

Output produced by TAFs form (0424 UTC 24 April 2018)
found at http://aviationweather.gov/adds/tafs/
 
Forecast for: FYWB (WALVIS BAY , NA)
Text: TAF FYWB 240400Z 2406/2512 36005KT CAVOK
Forecast period: 0600 to 1000 UTC 24 April 2018
Forecast type: FROM: standard forecast or significant change
Winds: from the N (360 degrees) at 6 MPH (5 knots; 2.6 m/s)
Visibility: 6 or more miles (10+ km)
Clouds: not forecast
Weather: NSW  (no significant weather)
Forecast for: FYWB (WALVIS BAY , NA)
Text: TAF FYWB 240400Z 2406/2512 36005KT CAVOK
Forecast period: 0600 to 1000 UTC 24 April 2018
Forecast type: FROM: standard forecast or significant change
Winds: from the N (360 degrees) at 6 MPH (5 knots; 2.6 m/s)
Visibility: 6 or more miles (10+ km)
Clouds: not forecast
Weather: NSW  (no significant weather)
Forecast for: FYWB (WALVIS BAY , NA)
Text: TAF FYWB 240400Z 2406/2512 36005KT CAVOK
Forecast period: 1000 UTC 24 April 2018 to 1200 UTC 25 April 2018
Forecast type: BECOMING: Conditions expected to become as follows by 1200 UTC 24 April 2018
Winds: from the WSW (240 degrees) at 12 MPH (10 knots; 5.2 m/s)
Visibility: 6 or more miles (10+ km)
Weather: NSW  (no significant weather)
Forecast for: FYWB (WALVIS BAY , NA)
Text: TAF FYWB 240400Z 2406/2512 36005KT CAVOK
Forecast period: 1000 UTC 24 April 2018 to 1200 UTC 25 April 2018
Forecast type: BECOMING: Conditions expected to become as follows by 1200 UTC 24 April 2018
Winds: from the WSW (240 degrees) at 12 MPH (10 knots; 5.2 m/s)
Visibility: 6 or more miles (10+ km)
Weather: NSW  (no significant weather)

Array
Eros Airport (Windhoek) - Namibia, FYWE

ADDS - TAFS form results

Aviation Digital Data Service (ADDS)

Output produced by TAFs form (0424 UTC 24 April 2018)
found at http://aviationweather.gov/adds/tafs/
 
Forecast for: FYWE (EROS AIRPORT , NA)
Text: TAF FYWE 240200Z 2403/2412 00000KT CAVOK
Forecast period: 0300 to 1200 UTC 24 April 2018
Forecast type: FROM: standard forecast or significant change
Winds: calm
Visibility: 6 or more miles (10+ km)
Clouds: not forecast
Weather: NSW  (no significant weather)

Array
J.G Strydom Airport - Namibia, FYWH

ADDS - TAFS form results

Aviation Digital Data Service (ADDS)

Output produced by TAFs form (0424 UTC 24 April 2018)
found at http://aviationweather.gov/adds/tafs/
 
Forecast for: FYWH (J. G. STRIJDOM , NA)
Text: TAF FYWH 240400Z 2406/2512 26005KT CAVOK
Forecast period: 0600 to 0800 UTC 24 April 2018
Forecast type: FROM: standard forecast or significant change
Winds: from the W (260 degrees) at 6 MPH (5 knots; 2.6 m/s)
Visibility: 6 or more miles (10+ km)
Clouds: not forecast
Weather: NSW  (no significant weather)
Forecast for: FYWH (J. G. STRIJDOM , NA)
Text: TAF FYWH 240400Z 2406/2512 26005KT CAVOK
Forecast period: 0600 to 0800 UTC 24 April 2018
Forecast type: FROM: standard forecast or significant change
Winds: from the W (260 degrees) at 6 MPH (5 knots; 2.6 m/s)
Visibility: 6 or more miles (10+ km)
Clouds: not forecast
Weather: NSW  (no significant weather)
Forecast for: FYWH (J. G. STRIJDOM , NA)
Text: TAF FYWH 240400Z 2406/2512 26005KT CAVOK
Forecast period: 0800 to 1900 UTC 24 April 2018
Forecast type: BECOMING: Conditions expected to become as follows by 1000 UTC 24 April 2018
Winds: from the N (360 degrees) at 8 MPH (7 knots; 3.6 m/s)
Visibility: 6 or more miles (10+ km)
Weather: NSW  (no significant weather)
Forecast for: FYWH (J. G. STRIJDOM , NA)
Text: TAF FYWH 240400Z 2406/2512 26005KT CAVOK
Forecast period: 0800 to 1900 UTC 24 April 2018
Forecast type: BECOMING: Conditions expected to become as follows by 1000 UTC 24 April 2018
Winds: from the N (360 degrees) at 8 MPH (7 knots; 3.6 m/s)
Visibility: 6 or more miles (10+ km)
Weather: NSW  (no significant weather)
Forecast for: FYWH (J. G. STRIJDOM , NA)
Text: TAF FYWH 240400Z 2406/2512 26005KT CAVOK
Forecast period: 1900 UTC 24 April 2018 to 1200 UTC 25 April 2018
Forecast type: BECOMING: Conditions expected to become as follows by 2100 UTC 24 April 2018
Winds: from the W (270 degrees) at 7 MPH (6 knots; 3.1 m/s)
Visibility: 6 or more miles (10+ km)
Weather: NSW  (no significant weather)
Forecast for: FYWH (J. G. STRIJDOM , NA)
Text: TAF FYWH 240400Z 2406/2512 26005KT CAVOK
Forecast period: 1900 UTC 24 April 2018 to 1200 UTC 25 April 2018
Forecast type: BECOMING: Conditions expected to become as follows by 2100 UTC 24 April 2018
Winds: from the W (270 degrees) at 7 MPH (6 knots; 3.1 m/s)
Visibility: 6 or more miles (10+ km)
Weather: NSW  (no significant weather)

Array
Windhoek - Namibia, FYWW

ADDS - TAFS form results

Aviation Digital Data Service (ADDS)

Output produced by TAFs form (0424 UTC 24 April 2018)
found at http://aviationweather.gov/adds/tafs/
 
You entered "FYWW"

Sorry, either there are no data available for your request or you did not enter any valid ICAO airport abbreviations.

See stations.txt for a list of known METAR and TAF locations. Then go back to the ADDS METARs or TAFs page and try again
 
Please try again and, if problems persist, then send mail to ncep.awc.adds@noaa.gov
Array